Aviation weather information 2022-09-27 12:12 UTC

TAF(FCEO32)
FCEO32 EETN 271200
TAF EEKA 271200Z 2713/2719 12012KT 9999 SCT020=

TAF(FTEO31)
FTEO31 EETN 271100
TAF EETN 271130Z 2712/2812 10010KT 9999 SCT030 TEMPO 2712/2715
     16012KT PROB40 TEMPO 2803/2807 BKN006 TEMPO 2808/2812 SCT025CB=

TAF(FTEO33)
FTEO33 EEEI 271100
TAF EEEI 271130Z 2712/2812 11010KT 9999 FEW035= 

Weather observation (METAR/SPECI)
METAR EETN 271150Z 13007KT 9999 FEW030 16/08 Q1008 NOSIG=
METAR EEEI 271150Z 12008KT 090V170 CAVOK 16/07 Q1007 NOSIG=
METAR EETU 271150Z 10008KT 9999 FEW026 14/08 Q1008=
METAR EEPU 271150Z AUTO 13008KT 060V170 9999 FEW039/// 16/07 Q1007=
METAR EEKE 271150Z AUTO 13013KT 9999NDV NCD 15/10 Q1005=
METAR EEKA 271150Z 12009KT CAVOK 16/10 Q1006=